Time;durP1;ratioP1;P1;durP2;ratioP2;P2;SDS_P1;SDS_P2;PMS_P1;PMS_P2;Temp;Humidity;BMP_temperature;BMP_pressure;BME280_temperature;BME280_humidity;BME280_pressure;Samples;Min_cycle;Max_cycle;Signal;HPM_P1;HPM_P2
2021/08/30 00:00:35;;;;;;;;;2.50;2.50;;;;;17.05;65.56;101247.38;5098187;27;56755;-60
2021/08/30 00:03:00;;;;;;;;;3.50;3.50;;;;;17.04;65.38;101240.41;5097653;27;72299;-59
2021/08/30 00:05:26;;;;;;;;;4.00;4.00;;;;;17.04;65.41;101235.91;5097891;27;45347;-59
2021/08/30 00:07:51;;;;;;;;;2.75;2.00;;;;;17.04;65.78;101235.91;5097846;27;60710;-60
2021/08/30 00:10:16;;;;;;;;;6.00;5.00;;;;;17.04;65.49;101230.59;5097910;27;62565;-60
2021/08/30 00:12:43;;;;;;;;;4.75;4.00;;;;;17.05;65.05;101232.25;5097373;27;69935;-59
2021/08/30 00:15:09;;;;;;;;;4.00;4.00;;;;;17.04;65.39;101230.59;5098378;27;45805;-60
2021/08/30 00:17:35;;;;;;;;;2.25;2.25;;;;;17.04;65.31;101237.75;5098501;27;45311;-59
2021/08/30 00:20:00;;;;;;;;;3.00;3.00;;;;;17.03;65.15;101228.13;5098329;27;45248;-60
2021/08/30 00:22:25;;;;;;;;;4.50;3.75;;;;;17.01;65.35;101227.44;5097846;27;45577;-60
2021/08/30 00:24:51;;;;;;;;;4.75;4.00;;;;;17.02;65.29;101229.91;5098226;27;45453;-60
2021/08/30 00:27:16;;;;;;;;;4.25;3.00;;;;;17.01;65.37;101230.91;5097307;27;64616;-61
2021/08/30 00:29:41;;;;;;;;;3.00;2.50;;;;;17.02;65.26;101231.75;5097327;27;68569;-60
2021/08/30 00:32:07;;;;;;;;;6.25;4.00;;;;;17.00;65.27;101223.94;5096951;27;73519;-60
2021/08/30 00:34:32;;;;;;;;;4.00;4.00;;;;;16.98;65.10;101225.94;5079344;27;57525;-60
2021/08/30 00:36:58;;;;;;;;;4.00;3.25;;;;;16.97;65.33;101226.09;5098055;27;45406;-60
2021/08/30 00:39:24;;;;;;;;;5.00;4.00;;;;;16.96;65.44;101222.59;5098083;27;45387;-60
2021/08/30 00:41:51;;;;;;;;;5.00;4.00;;;;;16.95;65.27;101220.94;5097921;27;46106;-60
2021/08/30 00:44:16;;;;;;;;;6.00;4.00;;;;;16.90;65.45;101212.63;5098089;27;45362;-60
2021/08/30 00:46:42;;;;;;;;;5.50;4.00;;;;;16.88;65.53;101222.56;5097368;27;55123;-60
2021/08/30 00:49:07;;;;;;;;;6.50;5.75;;;;;16.86;65.30;101219.25;5097188;27;64055;-61
2021/08/30 00:51:32;;;;;;;;;5.75;5.00;;;;;16.87;65.66;101221.72;5097147;27;65347;-60
2021/08/30 00:53:58;;;;;;;;;6.00;5.00;;;;;16.88;65.65;101214.59;5097965;27;45456;-60
2021/08/30 00:56:25;;;;;;;;;7.00;5.00;;;;;16.87;65.83;101223.56;5097178;27;45316;-60
2021/08/30 00:58:50;;;;;;;;;6.00;5.50;;;;;16.85;66.03;101222.88;5098085;27;45561;-60
2021/08/30 01:01:16;;;;;;;;;6.75;6.00;;;;;16.83;66.18;101219.56;5096727;27;74657;-60
2021/08/30 01:03:41;;;;;;;;;8.25;5.00;;;;;16.82;66.22;101223.22;5097215;27;60623;-60
2021/08/30 01:06:31;;;;;;;;;10.00;7.00;;;;;16.79;66.74;101220.88;5097994;27;45313;-60
2021/08/30 01:09:09;;;;;;;;;9.00;6.00;;;;;16.75;67.00;101220.34;5037360;27;45461;-60
2021/08/30 01:11:35;;;;;;;;;9.25;7.25;;;;;16.74;67.16;101218.69;5063775;27;45267;-60
2021/08/30 01:14:01;;;;;;;;;12.50;6.00;;;;;16.76;67.05;101214.91;5079450;27;46308;-60
2021/08/30 01:16:27;;;;;;;;;11.00;7.00;;;;;16.76;67.27;101212.25;5079472;27;45287;-60
2021/08/30 01:18:52;;;;;;;;;9.50;7.00;;;;;16.77;67.07;101213.06;5078644;27;62701;-60
2021/08/30 01:21:20;;;;;;;;;9.25;8.00;;;;;16.79;67.32;101210.25;5079069;27;45993;-59
2021/08/30 01:23:49;;;;;;;;;11.50;8.00;;;;;16.77;67.66;101213.91;5062590;27;45807;-60
2021/08/30 01:26:15;;;;;;;;;15.25;10.75;;;;;16.79;67.40;101210.25;5062780;27;45434;-59
2021/08/30 01:29:02;;;;;;;;;12.75;9.25;;;;;16.79;67.63;101213.72;5096975;27;45358;-60
2021/08/30 01:31:38;;;;;;;;;11.50;9.25;;;;;16.77;67.85;101205.94;5068062;27;47138;-60
2021/08/30 01:34:04;;;;;;;;;12.00;8.00;;;;;16.74;67.79;101208.91;5095685;27;45781;-60
2021/08/30 01:36:29;;;;;;;;;11.00;7.75;;;;;16.72;68.05;101202.94;5096582;27;45475;-61
2021/08/30 01:38:59;;;;;;;;;11.75;7.25;;;;;16.72;68.32;101202.94;5079071;27;45546;-60
2021/08/30 01:41:24;;;;;;;;;8.00;8.00;;;;;16.74;67.96;101198.31;5079564;27;47285;-60
2021/08/30 01:43:49;;;;;;;;;10.00;9.00;;;;;16.76;68.71;101204.28;5060966;27;73354;-60
2021/08/30 01:46:15;;;;;;;;;10.00;8.75;;;;;16.77;68.28;101207.75;5061269;27;69405;-60
2021/08/30 01:48:47;;;;;;;;;9.75;7.00;;;;;16.80;68.47;101198.66;5061147;27;63974;-60
2021/08/30 01:51:14;;;;;;;;;11.25;10.75;;;;;16.80;68.84;101196.00;5063386;27;46232;-61
2021/08/30 01:53:39;;;;;;;;;9.00;7.00;;;;;16.80;68.82;101198.66;5062135;27;45798;-60
2021/08/30 01:56:06;;;;;;;;;12.50;10.50;;;;;16.81;68.81;101205.63;5060917;27;66121;-60
2021/08/30 02:00:57;;;;;;;;;13.25;8.50;;;;;16.80;69.09;101191.50;5078837;27;46317;-61
2021/08/30 02:03:26;;;;;;;;;9.00;8.00;;;;;16.80;69.21;101201.31;5061920;27;45504;-61
2021/08/30 02:06:02;;;;;;;;;9.00;8.75;;;;;16.80;69.06;101191.50;5078868;27;45814;-60
2021/08/30 02:08:29;;;;;;;;;10.50;8.25;;;;;16.80;69.29;101198.66;5096843;27;45242;-61
2021/08/30 02:10:59;;;;;;;;;12.75;8.75;;;;;16.81;69.41;101197.66;5096871;27;46287;-60
2021/08/30 02:13:27;;;;;;;;;9.75;9.75;;;;;16.81;69.52;101195.00;5096990;27;45924;-61
2021/08/30 02:15:53;;;;;;;;;9.50;9.00;;;;;16.79;69.65;101199.66;5096237;27;45442;-60
2021/08/30 02:18:19;;;;;;;;;12.50;10.25;;;;;16.77;69.83;101197.97;5096763;27;47267;-60
2021/08/30 02:20:50;;;;;;;;;12.25;9.00;;;;;16.77;69.82;101195.31;5096561;27;46206;-61
2021/08/30 02:23:15;;;;;;;;;13.25;8.75;;;;;16.79;69.93;101189.03;5078581;27;45418;-60
2021/08/30 02:25:41;;;;;;;;;13.00;9.50;;;;;16.80;69.76;101199.47;5077618;27;64760;-61
2021/08/30 02:28:06;;;;;;;;;12.75;10.75;;;;;16.80;69.99;101201.31;5060585;27;70542;-61
2021/08/30 02:30:32;;;;;;;;;10.00;9.75;;;;;16.77;70.02;101192.66;5095779;27;65675;-61
2021/08/30 02:33:01;;;;;;;;;11.25;11.25;;;;;16.75;70.33;101186.69;5078094;27;45266;-61
2021/08/30 02:35:29;;;;;;;;;14.75;10.25;;;;;16.77;70.37;101191.81;5078791;27;45456;-61
2021/08/30 02:37:54;;;;;;;;;12.75;9.25;;;;;16.79;70.84;101187.19;5061366;27;45346;-60
2021/08/30 02:40:22;;;;;;;;;13.75;10.00;;;;;16.82;70.13;101194.00;5077324;27;69640;-60
2021/08/30 02:42:48;;;;;;;;;13.25;8.50;;;;;16.83;70.31;101190.38;5096583;27;45211;-61
2021/08/30 02:45:13;;;;;;;;;17.00;11.00;;;;;16.85;70.34;101199.00;5097946;27;45475;-60
2021/08/30 02:47:39;;;;;;;;;13.25;9.50;;;;;16.85;70.28;101191.03;5064801;27;45289;-60
2021/08/30 02:50:05;;;;;;;;;12.00;11.00;;;;;16.86;70.53;101195.34;5081577;27;46600;-60
2021/08/30 02:52:30;;;;;;;;;11.50;10.75;;;;;16.86;70.38;101196.19;5081832;27;45377;-60
2021/08/30 02:54:56;;;;;;;;;11.00;10.00;;;;;16.87;70.52;101197.84;5099828;27;45407;-60
2021/08/30 02:57:21;;;;;;;;;10.75;10.75;;;;;16.88;70.24;101193.38;5080387;27;63691;-60
2021/08/30 02:59:50;;;;;;;;;10.75;9.00;;;;;16.90;70.65;101191.38;5080781;27;65388;-61
2021/08/30 03:02:16;;;;;;;;;11.50;9.00;;;;;16.90;70.64;101197.50;5099851;27;45367;-60
2021/08/30 03:04:41;;;;;;;;;13.25;12.25;;;;;16.95;70.46;101190.91;5064374;27;45343;-60
2021/08/30 03:07:07;;;;;;;;;13.00;11.75;;;;;16.95;70.55;101193.53;5063549;27;66855;-61
2021/08/30 03:09:32;;;;;;;;;11.75;9.75;;;;;16.96;70.60;101179.28;5081157;27;46597;-59
2021/08/30 03:11:57;;;;;;;;;11.50;11.25;;;;;16.98;70.63;101185.28;5080332;27;70088;-61
2021/08/30 03:14:24;;;;;;;;;11.00;11.00;;;;;16.97;70.71;101170.34;5080987;27;52218;-61
2021/08/30 03:16:57;;;;;;;;;13.75;12.25;;;;;16.98;70.43;101187.94;5099608;27;45263;-61
2021/08/30 03:19:23;;;;;;;;;15.50;11.00;;;;;17.00;70.45;101180.66;5064390;27;45268;-60
2021/08/30 03:21:49;;;;;;;;;11.75;11.50;;;;;17.02;70.39;101178.66;5063297;27;65962;-60
2021/08/30 03:24:15;;;;;;;;;11.75;10.75;;;;;17.04;70.58;101179.34;5080972;27;45356;-61
2021/08/30 03:26:40;;;;;;;;;11.00;11.00;;;;;17.06;70.29;101174.69;5064301;27;45212;-61
2021/08/30 03:29:06;;;;;;;;;11.75;10.50;;;;;17.07;70.31;101171.03;5063486;27;61986;-61
2021/08/30 03:31:32;;;;;;;;;15.25;10.50;;;;;17.09;70.44;101177.03;5063250;27;66624;-61
2021/08/30 03:33:58;;;;;;;;;12.25;11.25;;;;;17.12;70.41;101181.16;5064037;27;45458;-60
2021/08/30 03:36:23;;;;;;;;;12.50;9.75;;;;;17.13;70.41;101167.75;5098862;27;45488;-60
2021/08/30 03:38:48;;;;;;;;;9.75;9.75;;;;;17.14;70.37;101177.38;5064057;27;46022;-61
2021/08/30 03:41:14;;;;;;;;;11.00;10.75;;;;;17.16;70.36;101171.88;5063172;27;64942;-60
2021/08/30 03:43:40;;;;;;;;;12.25;11.75;;;;;17.18;70.31;101172.53;5064139;27;45440;-61
2021/08/30 03:46:05;;;;;;;;;13.50;11.75;;;;;17.22;70.29;101170.41;5080644;27;48589;-61
2021/08/30 03:48:31;;;;;;;;;10.50;9.00;;;;;17.25;70.04;101172.72;5080461;27;45892;-60
2021/08/30 03:50:56;;;;;;;;;11.00;10.75;;;;;17.27;70.00;101173.38;5097949;27;70676;-60
2021/08/30 03:53:22;;;;;;;;;14.00;12.00;;;;;17.29;70.16;101171.38;5063177;27;62051;-61
2021/08/30 03:55:47;;;;;;;;;11.75;9.75;;;;;17.29;70.28;101174.88;5063516;27;45594;-60
2021/08/30 03:58:13;;;;;;;;;12.50;10.75;;;;;17.32;69.94;101179.03;5098322;27;45253;-59
2021/08/30 04:00:40;;;;;;;;;12.25;10.25;;;;;17.35;70.12;101182.19;5080499;27;45288;-60
2021/08/30 04:03:06;;;;;;;;;12.50;11.50;;;;;17.35;70.24;101181.34;5064133;27;45221;-61
2021/08/30 04:05:31;;;;;;;;;16.25;11.75;;;;;17.35;69.99;101174.22;5080385;27;45414;-61
2021/08/30 04:07:58;;;;;;;;;14.50;11.00;;;;;17.35;70.00;101176.03;5079471;27;69051;-61
2021/08/30 04:10:23;;;;;;;;;15.75;11.25;;;;;17.37;70.30;101173.25;5097978;27;45962;-60
2021/08/30 04:12:48;;;;;;;;;11.75;11.50;;;;;17.38;70.25;101170.41;5097889;27;63211;-60
2021/08/30 04:15:14;;;;;;;;;10.25;9.75;;;;;17.39;70.02;101172.06;5098356;27;47059;-60
2021/08/30 04:17:39;;;;;;;;;15.75;12.75;;;;;17.43;70.04;101177.91;5079127;27;71716;-60
2021/08/30 04:20:05;;;;;;;;;19.50;14.00;;;;;17.44;70.09;101172.41;5097760;27;62811;-60
2021/08/30 04:22:35;;;;;;;;;17.25;13.25;;;;;17.47;70.07;101176.56;5098366;27;45314;-60
2021/08/30 04:25:00;;;;;;;;;18.75;12.50;;;;;17.49;70.16;101179.84;5079760;27;45628;-61
2021/08/30 04:27:26;;;;;;;;;19.25;16.50;;;;;17.48;70.20;101176.38;5097306;27;46143;-61
2021/08/30 04:29:51;;;;;;;;;17.50;14.25;;;;;17.47;70.56;101171.25;5097522;27;65138;-61
2021/08/30 04:32:17;;;;;;;;;13.75;10.50;;;;;17.45;70.70;101173.25;5098282;27;45383;-60
2021/08/30 04:34:42;;;;;;;;;15.25;14.00;;;;;17.47;70.63;101171.25;5098324;27;45620;-60
2021/08/30 04:37:07;;;;;;;;;14.00;12.50;;;;;17.46;70.53;101180.22;5097241;27;70289;-60
2021/08/30 04:39:33;;;;;;;;;15.25;14.00;;;;;17.46;70.97;101180.22;5098066;27;45427;-60
2021/08/30 04:41:59;;;;;;;;;16.75;16.00;;;;;17.45;71.11;101183.88;5098232;27;45409;-61
2021/08/30 04:44:24;;;;;;;;;17.75;14.25;;;;;17.43;71.10;101169.91;5097639;27;45587;-60
2021/08/30 04:46:50;;;;;;;;;18.75;14.75;;;;;17.43;70.95;101175.22;5097651;27;51011;-61
2021/08/30 04:49:15;;;;;;;;;15.50;15.50;;;;;17.43;71.20;101185.88;5079572;27;45414;-60
2021/08/30 04:51:41;;;;;;;;;16.00;15.25;;;;;17.45;71.01;101191.84;5098036;27;45311;-61
2021/08/30 04:54:06;;;;;;;;;17.50;14.50;;;;;17.43;71.13;101191.19;5097508;27;55557;-60
2021/08/30 04:56:32;;;;;;;;;15.50;14.50;;;;;17.43;71.12;101193.84;5097862;27;45285;-60
2021/08/30 04:58:57;;;;;;;;;16.50;15.25;;;;;17.43;71.51;101196.50;5079274;27;53125;-60
2021/08/30 05:01:24;;;;;;;;;20.25;15.25;;;;;17.42;71.30;101190.31;5096934;27;66261;-59
2021/08/30 05:03:50;;;;;;;;;24.75;19.00;;;;;17.43;71.32;101191.19;5079501;27;45559;-60
2021/08/30 05:06:15;;;;;;;;;15.50;15.00;;;;;17.44;71.34;101193.66;5097203;27;60690;-61
2021/08/30 05:08:40;;;;;;;;;21.75;17.25;;;;;17.44;71.23;101190.19;5096856;27;45408;-61
2021/08/30 05:11:06;;;;;;;;;18.75;16.00;;;;;17.44;70.85;101195.50;5097780;27;45662;-60
2021/08/30 05:13:31;;;;;;;;;20.00;18.00;;;;;17.47;71.12;101203.13;5096753;27;65475;-60
2021/08/30 05:15:57;;;;;;;;;16.00;15.75;;;;;17.47;71.26;101203.94;5097517;27;45768;-61
2021/08/30 05:18:22;;;;;;;;;20.25;17.25;;;;;17.46;71.21;101204.94;5096466;27;73380;-60
2021/08/30 05:20:49;;;;;;;;;23.00;18.25;;;;;17.47;71.40;101198.63;5097208;27;50065;-60
2021/08/30 05:23:18;;;;;;;;;23.75;21.00;;;;;17.50;71.24;101210.75;5097702;27;45357;-61
2021/08/30 05:25:43;;;;;;;;;20.00;19.25;;;;;17.52;71.40;101199.97;5096521;27;46259;-61
2021/08/30 05:28:09;;;;;;;;;23.75;20.00;;;;;17.51;70.85;101201.78;5095501;27;70583;-60
2021/08/30 05:30:35;;;;;;;;;19.25;17.50;;;;;17.49;71.18;101201.13;5096786;27;45417;-61
2021/08/30 05:33:00;;;;;;;;;26.25;21.00;;;;;17.52;71.00;101202.63;5096546;27;45477;-61
2021/08/30 05:35:25;;;;;;;;;17.00;15.25;;;;;17.50;70.88;101200.13;5078158;27;67219;-60
2021/08/30 05:37:51;;;;;;;;;20.75;18.75;;;;;17.50;71.29;101206.28;5096355;27;66681;-60
2021/08/30 05:40:16;;;;;;;;;24.25;22.50;;;;;17.51;70.85;101207.09;5097370;27;45582;-61
2021/08/30 05:42:42;;;;;;;;;25.25;22.25;;;;;17.50;71.02;101206.28;5097248;27;45420;-60
2021/08/30 05:45:08;;;;;;;;;23.00;18.50;;;;;17.50;70.85;101208.09;5097072;27;45356;-61
2021/08/30 05:47:33;;;;;;;;;20.25;19.00;;;;;17.51;70.83;101204.44;5096840;27;45330;-60
2021/08/30 05:49:58;;;;;;;;;28.00;22.25;;;;;17.51;70.83;101201.78;5078147;27;64903;-60
2021/08/30 05:52:25;;;;;;;;;23.50;22.25;;;;;17.50;71.00;101203.63;5097156;27;45437;-60
2021/08/30 05:54:50;;;;;;;;;27.50;24.25;;;;;17.49;70.86;101199.31;5096929;27;46217;-61
2021/08/30 05:57:16;;;;;;;;;25.50;21.25;;;;;17.49;71.14;101204.63;5096818;27;45394;-60
2021/08/30 05:59:41;;;;;;;;;30.50;24.50;;;;;17.49;71.03;101207.28;5096189;27;66951;-60
2021/08/30 06:02:07;;;;;;;;;24.00;22.00;;;;;17.48;71.16;101204.78;5097034;27;45346;-61
2021/08/30 06:04:32;;;;;;;;;18.75;18.00;;;;;17.48;71.03;101207.44;5096384;27;45426;-60
2021/08/30 06:06:57;;;;;;;;;26.00;20.00;;;;;17.48;71.09;101212.75;5095455;27;45450;-59
2021/08/30 06:09:23;;;;;;;;;24.50;23.50;;;;;17.48;71.19;101213.56;5096340;27;45366;-60
2021/08/30 06:11:50;;;;;;;;;29.00;22.75;;;;;17.49;71.10;101219.72;5096629;27;45645;-61
2021/08/30 06:14:16;;;;;;;;;20.25;18.50;;;;;17.50;71.25;101218.72;5096761;27;46119;-60
2021/08/30 06:16:41;;;;;;;;;24.75;21.50;;;;;17.52;70.99;101230.00;5096378;27;59676;-61
2021/08/30 06:19:06;;;;;;;;;27.00;24.75;;;;;17.54;70.86;101224.53;5095871;27;64841;-61
2021/08/30 06:21:32;;;;;;;;;31.75;22.25;;;;;17.57;71.15;101221.56;5099245;27;63018;-60
2021/08/30 06:23:57;;;;;;;;;26.25;22.75;;;;;17.59;70.68;101228.34;5100102;27;45841;-60
2021/08/30 06:26:23;;;;;;;;;25.75;23.25;;;;;17.59;70.83;101223.03;5100132;27;45587;-60
2021/08/30 06:28:48;;;;;;;;;23.25;20.75;;;;;17.58;70.78;101224.03;5099313;27;62933;-61
2021/08/30 06:31:13;;;;;;;;;32.25;25.50;;;;;17.58;70.75;101221.38;5100288;27;45592;-61
2021/08/30 06:33:39;;;;;;;;;29.25;22.75;;;;;17.59;70.68;101231.00;5099279;27;66026;-59
2021/08/30 06:36:04;;;;;;;;;27.75;23.00;;;;;17.63;70.76;101226.22;5099126;27;45430;-60
2021/08/30 06:38:30;;;;;;;;;31.75;25.25;;;;;17.65;70.36;101229.53;5100138;27;45334;-61
2021/08/30 06:40:55;;;;;;;;;25.50;24.50;;;;;17.67;70.36;101240.00;5099175;27;68978;-60
2021/08/30 06:43:21;;;;;;;;;44.75;35.25;;;;;17.67;70.36;101235.53;5098817;27;75108;-61
2021/08/30 06:45:46;;;;;;;;;26.00;22.50;;;;;17.71;70.46;101236.00;5099166;27;45986;-60
2021/08/30 06:48:11;;;;;;;;;29.25;22.50;;;;;17.73;69.86;101232.19;5098971;27;66131;-60
2021/08/30 06:50:37;;;;;;;;;27.00;25.25;;;;;17.74;69.98;101241.00;5099267;27;56201;-61
2021/08/30 06:53:02;;;;;;;;;25.50;23.75;;;;;17.73;69.92;101236.66;5099329;27;51262;-61
2021/08/30 06:55:27;;;;;;;;;23.25;20.00;;;;;17.76;70.22;101239.00;5099532;27;55919;-60
2021/08/30 06:57:53;;;;;;;;;28.00;24.25;;;;;17.80;69.87;101235.00;5098912;27;62973;-61
2021/08/30 07:00:18;;;;;;;;;29.75;24.50;;;;;17.82;69.81;101241.00;5099318;27;56422;-61
2021/08/30 07:02:46;;;;;;;;;27.50;23.50;;;;;17.83;69.70;101234.69;5098917;27;66505;-61
2021/08/30 07:05:12;;;;;;;;;23.25;22.75;;;;;17.86;69.64;101233.50;5099562;27;45351;-60
2021/08/30 07:07:38;;;;;;;;;22.25;17.25;;;;;17.87;69.27;101240.47;5099573;27;45727;-61
2021/08/30 07:10:04;;;;;;;;;24.25;23.00;;;;;17.91;69.47;101241.81;5099605;27;45593;-61
2021/08/30 07:12:29;;;;;;;;;18.00;16.00;;;;;17.94;69.47;101252.97;5098298;27;45286;-61
2021/08/30 07:14:54;;;;;;;;;23.00;21.00;;;;;17.95;69.23;101251.97;5099635;27;45400;-61
2021/08/30 07:17:20;;;;;;;;;20.50;16.50;;;;;17.99;68.94;101241.84;5099632;27;45775;-61
2021/08/30 07:19:46;;;;;;;;;21.25;19.25;;;;;18.01;68.55;101252.31;5098325;27;45345;-60
2021/08/30 07:22:11;;;;;;;;;16.50;16.25;;;;;18.02;68.25;101249.47;5098479;27;45501;-60
2021/08/30 07:24:36;;;;;;;;;19.25;17.00;;;;;18.04;68.22;101260.78;5080402;27;58472;-61
2021/08/30 07:27:03;;;;;;;;;23.00;17.50;;;;;18.11;68.20;101265.44;5098363;27;67478;-60
2021/08/30 07:29:29;;;;;;;;;19.75;16.25;;;;;18.15;68.03;101262.25;5098927;27;45158;-60
2021/08/30 07:31:54;;;;;;;;;18.50;15.75;;;;;18.18;67.41;101264.59;5079739;27;46402;-60
2021/08/30 07:34:20;;;;;;;;;17.25;15.25;;;;;18.22;67.67;101267.75;5097932;27;66966;-60
2021/08/30 07:36:45;;;;;;;;;18.25;16.00;;;;;18.24;67.27;101266.56;5098241;27;67938;-61
2021/08/30 07:39:10;;;;;;;;;22.75;17.50;;;;;18.29;67.03;101265.22;5098207;27;69442;-60
2021/08/30 07:41:36;;;;;;;;;19.50;16.25;;;;;18.31;66.88;101273.88;5098041;27;72796;-61
2021/08/30 07:44:01;;;;;;;;;16.00;15.50;;;;;18.32;66.52;101263.06;5098348;27;59630;-60
2021/08/30 07:46:27;;;;;;;;;14.50;13.25;;;;;18.37;66.90;101270.53;5098369;27;55439;-60
2021/08/30 07:48:52;;;;;;;;;17.25;16.50;;;;;18.42;66.59;101270.03;5098769;27;45418;-60
2021/08/30 07:51:18;;;;;;;;;14.50;13.25;;;;;18.45;66.90;101281.16;5098022;27;45351;-60
2021/08/30 07:53:43;;;;;;;;;16.50;14.75;;;;;18.52;66.53;101276.00;5097816;27;67681;-60
2021/08/30 07:56:09;;;;;;;;;20.50;20.50;;;;;18.60;65.76;101277.78;5098211;27;54287;-60
2021/08/30 07:58:34;;;;;;;;;16.50;15.50;;;;;18.60;65.64;101283.94;5098181;27;45525;-60
2021/08/30 08:01:00;;;;;;;;;17.00;17.00;;;;;18.61;65.32;101282.09;5096566;27;75288;-61
2021/08/30 08:03:25;;;;;;;;;16.25;15.25;;;;;18.62;65.69;101279.28;5096733;27;72440;-60
2021/08/30 08:05:50;;;;;;;;;17.00;14.25;;;;;18.64;65.34;101285.28;5097324;27;45531;-60
2021/08/30 08:08:16;;;;;;;;;18.75;15.25;;;;;18.67;64.88;101284.94;5096572;27;65577;-61
2021/08/30 08:10:43;;;;;;;;;14.00;12.00;;;;;18.70;64.85;101297.06;5097306;27;46138;-60
2021/08/30 08:13:08;;;;;;;;;18.00;14.00;;;;;18.71;64.84;101298.72;5096653;27;45365;-61
2021/08/30 08:15:33;;;;;;;;;15.25;14.25;;;;;18.73;64.41;101294.06;5097700;27;67458;-61
2021/08/30 08:17:59;;;;;;;;;16.50;14.50;;;;;18.74;64.27;101302.88;5097558;27;68006;-59
2021/08/30 08:20:24;;;;;;;;;15.50;15.50;;;;;18.75;63.73;101297.38;5097361;27;72216;-61
2021/08/30 08:22:49;;;;;;;;;18.75;16.75;;;;;18.77;63.66;101297.22;5098116;27;45271;-60
2021/08/30 08:25:15;;;;;;;;;22.00;19.00;;;;;18.79;63.38;101301.34;5097527;27;65134;-60
2021/08/30 08:27:40;;;;;;;;;17.25;16.25;;;;;18.77;63.53;101297.22;5097156;27;70192;-61
2021/08/30 08:30:06;;;;;;;;;18.50;16.25;;;;;18.79;63.40;101303.19;5097973;27;46108;-60
2021/08/30 08:32:32;;;;;;;;;17.25;15.00;;;;;18.79;63.73;101308.53;5098038;27;46541;-61
2021/08/30 08:34:57;;;;;;;;;17.25;15.25;;;;;18.82;64.22;101298.34;5098304;27;45818;-61
2021/08/30 08:37:22;;;;;;;;;19.25;14.50;;;;;18.87;64.00;101302.34;5097333;27;64548;-61
2021/08/30 08:39:48;;;;;;;;;17.50;15.50;;;;;18.93;63.78;101299.00;5098019;27;45877;-60
2021/08/30 08:42:13;;;;;;;;;21.00;17.75;;;;;19.03;64.11;101304.13;5096642;27;69700;-60
2021/08/30 08:44:38;;;;;;;;;19.25;16.50;;;;;19.10;63.28;101305.09;5098043;27;45497;-61
2021/08/30 08:47:04;;;;;;;;;15.25;14.50;;;;;19.21;63.09;101317.19;5096955;27;60697;-60
2021/08/30 08:49:29;;;;;;;;;18.50;15.25;;;;;19.31;62.67;101312.47;5097498;27;45869;-61
2021/08/30 08:51:55;;;;;;;;;15.00;14.00;;;;;19.39;62.64;101314.25;5097079;27;65139;-61
2021/08/30 08:54:20;;;;;;;;;12.50;12.50;;;;;19.49;61.63;101319.38;5097359;27;58057;-60
2021/08/30 08:56:45;;;;;;;;;15.00;15.00;;;;;19.57;61.45;101316.66;5097056;27;62037;-60
2021/08/30 08:59:11;;;;;;;;;18.75;16.50;;;;;19.66;61.79;101315.59;5097687;27;45397;-60
2021/08/30 09:01:37;;;;;;;;;15.75;15.50;;;;;19.72;61.11;101320.22;5097023;27;65412;-60
2021/08/30 09:04:03;;;;;;;;;16.75;14.25;;;;;19.79;60.73;101311.50;5097872;27;45370;-61
2021/08/30 09:06:34;;;;;;;;;17.00;14.25;;;;;19.78;60.13;101312.50;5097596;27;45507;-60
2021/08/30 09:09:10;;;;;;;;;15.00;15.00;;;;;19.79;60.68;101306.16;5078815;27;45412;-60
2021/08/30 09:11:38;;;;;;;;;16.75;15.50;;;;;19.78;60.04;101313.34;5097467;27;45883;-60
2021/08/30 09:14:17;;;;;;;;;17.50;14.25;;;;;19.78;60.05;101318.69;5097193;27;45347;-60
2021/08/30 09:16:42;;;;;;;;;16.00;14.50;;;;;19.85;60.11;101321.47;5096438;27;45411;-60
2021/08/30 09:19:09;;;;;;;;;20.00;14.75;;;;;19.90;60.03;101315.59;5097340;27;45957;-60
2021/08/30 09:21:35;;;;;;;;;15.25;14.75;;;;;19.93;59.58;101316.09;5097129;27;45320;-60
2021/08/30 09:24:20;;;;;;;;;15.25;11.50;;;;;19.99;60.09;101326.06;5097426;27;45407;-60
2021/08/30 09:26:54;;;;;;;;;14.75;13.00;;;;;20.05;59.33;101327.16;5080301;27;45348;-60
2021/08/30 09:29:21;;;;;;;;;15.00;14.25;;;;;20.06;59.32;101320.81;5097116;27;47540;-61
2021/08/30 09:31:59;;;;;;;;;15.25;13.50;;;;;20.09;58.79;101328.47;5097086;27;45829;-61
2021/08/30 09:34:57;;;;;;;;;14.75;12.50;;;;;20.15;58.87;101319.75;5097342;27;45251;-60
2021/08/30 09:37:23;;;;;;;;;16.75;12.00;;;;;20.20;58.92;101319.19;5090070;27;45397;-61
2021/08/30 09:39:59;;;;;;;;;16.50;14.50;;;;;20.22;58.66;101324.38;5079005;27;45975;-60
2021/08/30 09:42:25;;;;;;;;;18.00;15.50;;;;;20.19;58.40;101328.19;5097003;27;45511;-60
2021/08/30 09:44:51;;;;;;;;;16.75;16.75;;;;;20.18;58.29;101337.22;5097147;27;45362;-61
2021/08/30 09:47:17;;;;;;;;;16.75;14.75;;;;;20.17;58.47;101333.72;5096247;27;45445;-61
2021/08/30 09:49:47;;;;;;;;;13.00;10.50;;;;;20.17;58.54;101327.56;5078809;27;45466;-61
2021/08/30 09:52:12;;;;;;;;;17.00;12.25;;;;;20.22;58.69;101329.69;5096829;27;45716;-60
2021/08/30 09:54:38;;;;;;;;;13.50;12.50;;;;;20.24;58.39;101325.00;5095438;27;63254;-61
2021/08/30 09:57:04;;;;;;;;;15.25;13.75;;;;;20.26;57.76;101326.47;5095854;27;67229;-60
2021/08/30 09:59:29;;;;;;;;;14.50;11.50;;;;;20.23;58.02;101334.84;5078244;27;52478;-61
2021/08/30 10:01:54;;;;;;;;;12.25;11.00;;;;;20.24;58.11;101336.50;5061414;27;50041;-60
2021/08/30 10:04:20;;;;;;;;;13.75;11.50;;;;;20.26;57.32;101321.13;5061600;27;45471;-60
2021/08/30 10:06:49;;;;;;;;;16.75;13.50;;;;;20.30;57.40;101330.44;5096420;27;45315;-61
2021/08/30 10:09:15;;;;;;;;;13.00;12.00;;;;;20.34;57.80;101324.75;5096706;27;45964;-60
2021/08/30 10:11:41;;;;;;;;;13.00;12.00;;;;;20.41;57.45;101320.34;5096476;27;45270;-60
2021/08/30 10:14:07;;;;;;;;;14.25;14.25;;;;;20.45;57.45;101319.78;5096763;27;45554;-61
2021/08/30 10:16:33;;;;;;;;;15.00;12.50;;;;;20.50;57.60;101321.91;5078475;27;45581;-60
2021/08/30 10:18:59;;;;;;;;;13.25;12.00;;;;;20.58;57.47;101318.31;5096534;27;45408;-60
2021/08/30 10:21:26;;;;;;;;;10.50;10.50;;;;;20.69;57.93;101317.03;5095730;27;45532;-61
2021/08/30 10:23:51;;;;;;;;;13.50;11.00;;;;;20.87;57.50;101317.53;5096804;27;45339;-61
2021/08/30 10:26:17;;;;;;;;;12.00;11.50;;;;;21.07;56.08;101308.94;5078515;27;45951;-61
2021/08/30 10:28:44;;;;;;;;;13.50;12.25;;;;;21.26;55.88;101301.34;5077255;27;47016;-61
2021/08/30 10:31:25;;;;;;;;;13.25;12.50;;;;;21.38;55.26;101315.06;5096210;27;45824;-61
2021/08/30 10:33:52;;;;;;;;;13.50;12.50;;;;;21.50;55.47;101309.00;5080031;27;45347;-60
2021/08/30 10:36:19;;;;;;;;;13.25;12.25;;;;;21.64;54.75;101319.88;5096348;27;45464;-60
2021/08/30 10:38:57;;;;;;;;;15.75;14.00;;;;;21.77;54.58;101311.16;5095267;27;45416;-61
2021/08/30 10:41:30;;;;;;;;;14.25;11.00;;;;;21.83;54.52;101312.22;5096263;27;45437;-60
2021/08/30 10:44:03;;;;;;;;;13.50;12.50;;;;;21.88;54.79;101307.97;5095415;27;45287;-60
2021/08/30 10:46:39;;;;;;;;;21.50;19.00;;;;;21.97;54.25;101305.97;5095818;27;45372;-61
2021/08/30 10:49:15;;;;;;;;;14.50;12.25;;;;;21.96;53.21;101304.31;5078640;27;46075;-60
2021/08/30 10:51:40;;;;;;;;;15.00;12.75;;;;;21.99;53.33;101311.97;5078025;27;45763;-60
2021/08/30 10:54:08;;;;;;;;;12.25;11.00;;;;;22.02;53.67;101313.41;5078106;27;45411;-60
2021/08/30 10:56:33;;;;;;;;;37.50;29.25;;;;;22.08;52.66;101308.13;5096163;27;45281;-61
2021/08/30 10:59:06;;;;;;;;;18.50;14.50;;;;;22.13;52.01;101314.75;5095185;27;74319;-61
2021/08/30 11:01:31;;;;;;;;;14.50;13.00;;;;;22.12;51.67;101315.78;5096114;27;45850;-60
2021/08/30 11:03:57;;;;;;;;;15.00;15.00;;;;;22.13;52.39;101314.75;5095712;27;55639;-60
2021/08/30 11:06:22;;;;;;;;;13.25;12.00;;;;;22.16;52.29;101306.34;5097909;27;45623;-61
2021/08/30 11:08:48;;;;;;;;;11.00;11.00;;;;;22.22;52.19;101310.91;5099403;27;46100;-61
2021/08/30 11:11:14;;;;;;;;;19.75;13.75;;;;;22.19;51.67;101322.81;5099554;27;45336;-61